ASA418 MZBZ-KLAX
Flight info
| Callsign | ASA418 |
|---|---|
| Flight time | 4h 54m |
| Altitude | 38000 |
| Route | BZE UL349 VSA UJ12 VER UT61 AVALI UL655 PPE J93 ASUTA DCT AMMOR OLAAA2 |
| Aircraft | B739/M-SDE2E3FGHIRWXY/LB1 |
Departure
| Time | 2026-04-25 19:09 |
|---|---|
| Airport | Philip S. W. Goldson International Airport (MZBZ) |
Arrival
| Time | 2026-04-26 00:04 |
|---|---|
| Airport | Los Angeles International Airport (KLAX) |
| Time | Latitude | Longitude | Altitude | Speed | Heading |
|---|---|---|---|---|---|
| 2026-04-25 18:45 | 17.53704 | -88.30692 | 16 ft | 0 kts | 167° |
| 2026-04-25 18:59 | 17.53753 | -88.30699 | 19 ft | 4 kts | 184° |
| 2026-04-25 19:00 | 17.53778 | -88.30695 | 16 ft | 1 kts | 194° |
| 2026-04-25 19:02 | 17.53777 | -88.30695 | 16 ft | 1 kts | 196° |
| 2026-04-25 19:02 | 17.53769 | -88.30702 | 16 ft | 4 kts | 224° |
| 2026-04-25 19:03 | 17.53744 | -88.30783 | 16 ft | 7 kts | 255° |
| 2026-04-25 19:03 | 17.53730 | -88.30851 | 16 ft | 7 kts | 258° |
| 2026-04-25 19:03 | 17.53719 | -88.30900 | 18 ft | 7 kts | 255° |
| 2026-04-25 19:04 | 17.53697 | -88.30995 | 16 ft | 7 kts | 259° |
| 2026-04-25 19:04 | 17.53688 | -88.31041 | 16 ft | 7 kts | 257° |
| 2026-04-25 19:05 | 17.53665 | -88.31132 | 16 ft | 6 kts | 254° |
| 2026-04-25 19:05 | 17.53650 | -88.31220 | 16 ft | 6 kts | 257° |
| 2026-04-25 19:05 | 17.53640 | -88.31262 | 16 ft | 6 kts | 255° |
| 2026-04-25 19:06 | 17.53623 | -88.31327 | 16 ft | 12 kts | 255° |
| 2026-04-25 19:06 | 17.53587 | -88.31497 | 16 ft | 12 kts | 257° |
| 2026-04-25 19:06 | 17.53570 | -88.31577 | 16 ft | 11 kts | 257° |
| 2026-04-25 19:07 | 17.53538 | -88.31725 | 16 ft | 10 kts | 266° |
| 2026-04-25 19:07 | 17.53575 | -88.31775 | 17 ft | 9 kts | 340° |
| 2026-04-25 19:08 | 17.53682 | -88.31799 | 16 ft | 3 kts | 10° |
| 2026-04-25 19:08 | 17.53693 | -88.31780 | 18 ft | 3 kts | 72° |
| 2026-04-25 19:09 | 17.54009 | -88.30353 | 19 ft | 153 kts | 79° |
| 2026-04-25 19:09 | 17.54151 | -88.29591 | 171 ft | 168 kts | 80° |
| 2026-04-25 19:09 | 17.54627 | -88.26459 | 1230 ft | 191 kts | 99° |
| 2026-04-25 19:10 | 17.54281 | -88.25104 | 1968 ft | 199 kts | 112° |
| 2026-04-25 19:10 | 17.53706 | -88.23708 | 2179 ft | 220 kts | 109° |
| 2026-04-25 19:10 | 17.52953 | -88.22240 | 2310 ft | 241 kts | 137° |
| 2026-04-25 19:10 | 17.51431 | -88.21400 | 2669 ft | 253 kts | 160° |
| 2026-04-25 19:11 | 17.49781 | -88.20720 | 3327 ft | 257 kts | 157° |
| 2026-04-25 19:11 | 17.48147 | -88.19919 | 3896 ft | 263 kts | 154° |
| 2026-04-25 19:11 | 17.46499 | -88.19047 | 4483 ft | 266 kts | 154° |
| 2026-04-25 19:11 | 17.44845 | -88.18147 | 5038 ft | 270 kts | 153° |
| 2026-04-25 19:12 | 17.43187 | -88.17246 | 5713 ft | 268 kts | 157° |
| 2026-04-25 19:12 | 17.41362 | -88.16858 | 6178 ft | 273 kts | 185° |
| 2026-04-25 19:12 | 17.39520 | -88.17380 | 6636 ft | 278 kts | 205° |
| 2026-04-25 19:12 | 17.37776 | -88.18315 | 7104 ft | 283 kts | 208° |
| 2026-04-25 19:13 | 17.36040 | -88.19313 | 7595 ft | 288 kts | 209° |
| 2026-04-25 19:13 | 17.34270 | -88.20338 | 7966 ft | 292 kts | 209° |
| 2026-04-25 19:13 | 17.32486 | -88.21366 | 7966 ft | 293 kts | 209° |
| 2026-04-25 19:13 | 17.30697 | -88.22388 | 7982 ft | 293 kts | 209° |
| 2026-04-25 19:14 | 17.28898 | -88.23411 | 7990 ft | 295 kts | 209° |
| 2026-04-25 19:14 | 17.28313 | -88.23743 | 8011 ft | 296 kts | 209° |
| 2026-04-25 19:14 | 17.25252 | -88.25472 | 8707 ft | 302 kts | 208° |
| 2026-04-25 19:14 | 17.23423 | -88.26503 | 9243 ft | 305 kts | 209° |
| 2026-04-25 19:15 | 17.21516 | -88.27577 | 9743 ft | 309 kts | 209° |
| 2026-04-25 19:15 | 17.19616 | -88.28647 | 10257 ft | 312 kts | 209° |
| 2026-04-25 19:15 | 17.17653 | -88.29752 | 10396 ft | 330 kts | 209° |
| 2026-04-25 19:15 | 17.15614 | -88.30898 | 10517 ft | 346 kts | 209° |
| 2026-04-25 19:16 | 17.13456 | -88.32199 | 10647 ft | 361 kts | 218° |
| 2026-04-25 19:16 | 17.11784 | -88.34188 | 10747 ft | 371 kts | 243° |
| 2026-04-25 19:16 | 17.10813 | -88.36722 | 10845 ft | 382 kts | 253° |
| 2026-04-25 19:16 | 17.09997 | -88.39401 | 10941 ft | 394 kts | 254° |
| 2026-04-25 19:17 | 17.09177 | -88.42145 | 11048 ft | 404 kts | 254° |
| 2026-04-25 19:17 | 17.08327 | -88.44963 | 11320 ft | 408 kts | 254° |
| 2026-04-25 19:17 | 17.07446 | -88.47838 | 11662 ft | 411 kts | 254° |
| 2026-04-25 19:17 | 17.06575 | -88.50646 | 12012 ft | 413 kts | 254° |
| 2026-04-25 19:18 | 17.05678 | -88.53518 | 12353 ft | 416 kts | 254° |
| 2026-04-25 19:18 | 17.04774 | -88.56397 | 12708 ft | 418 kts | 254° |
| 2026-04-25 19:18 | 17.03866 | -88.59286 | 13057 ft | 421 kts | 253° |
| 2026-04-25 19:18 | 17.02950 | -88.62198 | 13301 ft | 425 kts | 253° |
| 2026-04-25 19:19 | 17.02027 | -88.65137 | 13728 ft | 425 kts | 253° |
| 2026-04-25 19:19 | 17.01103 | -88.68072 | 14067 ft | 426 kts | 253° |
| 2026-04-25 19:19 | 17.00344 | -88.71062 | 14342 ft | 426 kts | 266° |
| 2026-04-25 19:19 | 17.00371 | -88.73104 | 14559 ft | 424 kts | 280° |
| 2026-04-25 19:20 | 17.01415 | -88.77038 | 15116 ft | 419 kts | 292° |
| 2026-04-25 19:20 | 17.02498 | -88.79878 | 15418 ft | 422 kts | 294° |
| 2026-04-25 19:20 | 17.03625 | -88.82715 | 15711 ft | 425 kts | 294° |
| 2026-04-25 19:20 | 17.04770 | -88.85573 | 15976 ft | 427 kts | 294° |
| 2026-04-25 19:21 | 17.05906 | -88.88439 | 16352 ft | 427 kts | 294° |
| 2026-04-25 19:21 | 17.08152 | -88.94201 | 16972 ft | 430 kts | 293° |
| 2026-04-25 19:21 | 17.09272 | -88.97112 | 17227 ft | 432 kts | 293° |
| 2026-04-25 19:22 | 17.10391 | -89.00036 | 17522 ft | 434 kts | 293° |
| 2026-04-25 19:22 | 17.11508 | -89.02964 | 17811 ft | 435 kts | 293° |
| 2026-04-25 19:22 | 17.13751 | -89.08852 | 18304 ft | 438 kts | 293° |
| 2026-04-25 19:23 | 17.14878 | -89.11813 | 18516 ft | 439 kts | 293° |
| 2026-04-25 19:23 | 17.17143 | -89.17765 | 18974 ft | 442 kts | 292° |
| 2026-04-25 19:23 | 17.18282 | -89.20760 | 19181 ft | 443 kts | 292° |
| 2026-04-25 19:24 | 17.19421 | -89.23757 | 19396 ft | 445 kts | 292° |
| 2026-04-25 19:24 | 17.20568 | -89.26774 | 19576 ft | 446 kts | 292° |
| 2026-04-25 19:24 | 17.22865 | -89.32824 | 19982 ft | 449 kts | 292° |
| 2026-04-25 19:25 | 17.25169 | -89.38899 | 20389 ft | 451 kts | 292° |
| 2026-04-25 19:25 | 17.26329 | -89.41961 | 20580 ft | 452 kts | 292° |
| 2026-04-25 19:25 | 17.27486 | -89.45014 | 20754 ft | 454 kts | 292° |
| 2026-04-25 19:26 | 17.28651 | -89.48092 | 20936 ft | 455 kts | 292° |
| 2026-04-25 19:26 | 17.29816 | -89.51170 | 21128 ft | 456 kts | 292° |
| 2026-04-25 19:26 | 17.30984 | -89.54257 | 21304 ft | 457 kts | 292° |
| 2026-04-25 19:26 | 17.32154 | -89.57355 | 21477 ft | 458 kts | 292° |
| 2026-04-25 19:27 | 17.33328 | -89.60462 | 21662 ft | 459 kts | 292° |
| 2026-04-25 19:27 | 17.33709 | -89.61469 | 21708 ft | 460 kts | 292° |
| 2026-04-25 19:27 | 17.35682 | -89.66697 | 21989 ft | 461 kts | 292° |
| 2026-04-25 19:27 | 17.36858 | -89.69817 | 22156 ft | 462 kts | 292° |
| 2026-04-25 19:28 | 17.38041 | -89.72954 | 22308 ft | 464 kts | 292° |
| 2026-04-25 19:28 | 17.39209 | -89.76054 | 22470 ft | 465 kts | 292° |
| 2026-04-25 19:28 | 17.40398 | -89.79212 | 22665 ft | 464 kts | 292° |
| 2026-04-25 19:28 | 17.41577 | -89.82345 | 22908 ft | 463 kts | 292° |
| 2026-04-25 19:29 | 17.42761 | -89.85491 | 23045 ft | 465 kts | 292° |
| 2026-04-25 19:29 | 17.43945 | -89.88642 | 23152 ft | 466 kts | 292° |
| 2026-04-25 19:29 | 17.45132 | -89.91800 | 23269 ft | 468 kts | 291° |
| 2026-04-25 19:29 | 17.46324 | -89.94973 | 23396 ft | 469 kts | 291° |
| 2026-04-25 19:30 | 17.47517 | -89.98154 | 23528 ft | 469 kts | 291° |
| 2026-04-25 19:30 | 17.48714 | -90.01344 | 23641 ft | 469 kts | 292° |
| 2026-04-25 19:30 | 17.49909 | -90.04530 | 23762 ft | 470 kts | 292° |
| 2026-04-25 19:30 | 17.51099 | -90.07707 | 23885 ft | 470 kts | 291° |
| 2026-04-25 19:31 | 17.52297 | -90.10905 | 24013 ft | 470 kts | 291° |
| 2026-04-25 19:31 | 17.53491 | -90.14097 | 24125 ft | 471 kts | 291° |
| 2026-04-25 19:31 | 17.54687 | -90.17292 | 24223 ft | 471 kts | 291° |
| 2026-04-25 19:31 | 17.55879 | -90.20483 | 24339 ft | 471 kts | 291° |
| 2026-04-25 19:32 | 17.57075 | -90.23683 | 24454 ft | 472 kts | 291° |
| 2026-04-25 19:32 | 17.58272 | -90.26889 | 24555 ft | 472 kts | 291° |
| 2026-04-25 19:32 | 17.59469 | -90.30094 | 24663 ft | 473 kts | 291° |
| 2026-04-25 19:32 | 17.59874 | -90.31181 | 24677 ft | 473 kts | 291° |
| 2026-04-25 19:33 | 17.61863 | -90.36515 | 24844 ft | 473 kts | 291° |
| 2026-04-25 19:33 | 17.63060 | -90.39728 | 24945 ft | 474 kts | 291° |
| 2026-04-25 19:33 | 17.64256 | -90.42941 | 25015 ft | 475 kts | 291° |
| 2026-04-25 19:33 | 17.65458 | -90.46169 | 25083 ft | 475 kts | 291° |
| 2026-04-25 19:34 | 17.66658 | -90.49394 | 25193 ft | 475 kts | 291° |
| 2026-04-25 19:34 | 17.67456 | -90.51541 | 25261 ft | 475 kts | 291° |
| 2026-04-25 19:34 | 17.68652 | -90.54761 | 25352 ft | 475 kts | 291° |
| 2026-04-25 19:34 | 17.69850 | -90.57986 | 25452 ft | 475 kts | 291° |
| 2026-04-25 19:35 | 17.71049 | -90.61217 | 25585 ft | 474 kts | 291° |
| 2026-04-25 19:35 | 17.72242 | -90.64433 | 25722 ft | 473 kts | 291° |
| 2026-04-25 19:35 | 17.73433 | -90.67647 | 25857 ft | 472 kts | 291° |
| 2026-04-25 19:35 | 17.74622 | -90.70855 | 25992 ft | 471 kts | 291° |
| 2026-04-25 19:36 | 17.75804 | -90.74046 | 26203 ft | 468 kts | 291° |
| 2026-04-25 19:36 | 17.76979 | -90.77223 | 26382 ft | 467 kts | 291° |
| 2026-04-25 19:36 | 17.78152 | -90.80395 | 26519 ft | 467 kts | 291° |
| 2026-04-25 19:36 | 17.79327 | -90.83572 | 26627 ft | 467 kts | 291° |
| 2026-04-25 19:37 | 17.80499 | -90.86745 | 26762 ft | 466 kts | 291° |
| 2026-04-25 19:37 | 17.81543 | -90.89955 | 26915 ft | 466 kts | 285° |
| 2026-04-25 19:37 | 17.82147 | -90.93301 | 27077 ft | 466 kts | 277° |
| 2026-04-25 19:37 | 17.82456 | -90.96673 | 27254 ft | 465 kts | 276° |
| 2026-04-25 19:38 | 17.82754 | -91.00053 | 27411 ft | 464 kts | 276° |
| 2026-04-25 19:38 | 17.83056 | -91.03421 | 27582 ft | 464 kts | 277° |
| 2026-04-25 19:38 | 17.83367 | -91.06790 | 27780 ft | 462 kts | 277° |
| 2026-04-25 19:38 | 17.83684 | -91.10134 | 27980 ft | 461 kts | 277° |
| 2026-04-25 19:39 | 17.84008 | -91.13486 | 28177 ft | 460 kts | 277° |
| 2026-04-25 19:39 | 17.84333 | -91.16822 | 28365 ft | 460 kts | 277° |
| 2026-04-25 19:39 | 17.84659 | -91.20157 | 28542 ft | 459 kts | 277° |
| 2026-04-25 19:39 | 17.84984 | -91.23487 | 28740 ft | 458 kts | 277° |
| 2026-04-25 19:40 | 17.85309 | -91.26816 | 28990 ft | 457 kts | 277° |
| 2026-04-25 19:40 | 17.85631 | -91.30128 | 29233 ft | 456 kts | 277° |
| 2026-04-25 19:40 | 17.85951 | -91.33437 | 29471 ft | 455 kts | 277° |
| 2026-04-25 19:40 | 17.86270 | -91.36727 | 29726 ft | 453 kts | 277° |
| 2026-04-25 19:41 | 17.86587 | -91.40020 | 29951 ft | 452 kts | 277° |
| 2026-04-25 19:41 | 17.86900 | -91.43262 | 30131 ft | 452 kts | 277° |
| 2026-04-25 19:41 | 17.87220 | -91.46590 | 30300 ft | 453 kts | 277° |
| 2026-04-25 19:41 | 17.87428 | -91.48763 | 30422 ft | 452 kts | 277° |
| 2026-04-25 19:42 | 17.87846 | -91.53115 | 30675 ft | 452 kts | 277° |
| 2026-04-25 19:42 | 17.88160 | -91.56400 | 30845 ft | 453 kts | 277° |
| 2026-04-25 19:42 | 17.88475 | -91.59696 | 31026 ft | 453 kts | 277° |
| 2026-04-25 19:42 | 17.88788 | -91.62977 | 31225 ft | 453 kts | 277° |
| 2026-04-25 19:43 | 17.89101 | -91.66276 | 31436 ft | 453 kts | 277° |
| 2026-04-25 19:43 | 17.89413 | -91.69563 | 31630 ft | 453 kts | 277° |
| 2026-04-25 19:43 | 17.89725 | -91.72845 | 31842 ft | 452 kts | 277° |
| 2026-04-25 19:43 | 17.90036 | -91.76134 | 32057 ft | 452 kts | 277° |
| 2026-04-25 19:44 | 17.90346 | -91.79419 | 32278 ft | 452 kts | 277° |
| 2026-04-25 19:44 | 17.90656 | -91.82702 | 32507 ft | 452 kts | 276° |
| 2026-04-25 19:44 | 17.90964 | -91.85979 | 32723 ft | 451 kts | 276° |
| 2026-04-25 19:44 | 17.91271 | -91.89252 | 32995 ft | 450 kts | 276° |
| 2026-04-25 19:45 | 17.91577 | -91.92516 | 33302 ft | 448 kts | 276° |
| 2026-04-25 19:45 | 17.91883 | -91.95776 | 33500 ft | 449 kts | 276° |
| 2026-04-25 19:45 | 17.92187 | -91.99037 | 33691 ft | 449 kts | 276° |
| 2026-04-25 19:45 | 17.92492 | -92.02298 | 33742 ft | 451 kts | 276° |
| 2026-04-25 19:46 | 17.93101 | -92.08852 | 33749 ft | 449 kts | 276° |
| 2026-04-25 19:46 | 17.93704 | -92.15361 | 33754 ft | 447 kts | 276° |
| 2026-04-25 19:47 | 17.94303 | -92.21841 | 33753 ft | 446 kts | 276° |
| 2026-04-25 19:47 | 17.94908 | -92.28313 | 33755 ft | 445 kts | 277° |
| 2026-04-25 19:48 | 17.95522 | -92.34782 | 33749 ft | 445 kts | 277° |
| 2026-04-25 19:48 | 17.96129 | -92.41209 | 33753 ft | 446 kts | 277° |
| 2026-04-25 19:49 | 17.96640 | -92.46648 | 33758 ft | 447 kts | 277° |
| 2026-04-25 19:49 | 17.97347 | -92.54210 | 33758 ft | 449 kts | 276° |
| 2026-04-25 19:50 | 17.98259 | -92.64018 | 33760 ft | 451 kts | 276° |
| 2026-04-25 19:51 | 17.98868 | -92.70592 | 33759 ft | 452 kts | 277° |
| 2026-04-25 19:51 | 17.99475 | -92.77171 | 33762 ft | 453 kts | 276° |
| 2026-04-25 19:52 | 18.00472 | -92.83683 | 33765 ft | 451 kts | 289° |
| 2026-04-25 19:52 | 18.02653 | -92.89854 | 33776 ft | 451 kts | 291° |
| 2026-04-25 19:53 | 18.04871 | -92.96018 | 33774 ft | 451 kts | 291° |
| 2026-04-25 19:53 | 18.07044 | -93.02184 | 33772 ft | 450 kts | 290° |
| 2026-04-25 19:54 | 18.09185 | -93.08319 | 33769 ft | 450 kts | 290° |
| 2026-04-25 19:54 | 18.11337 | -93.14492 | 33768 ft | 450 kts | 290° |
| 2026-04-25 19:55 | 18.13487 | -93.20662 | 33768 ft | 449 kts | 290° |
| 2026-04-25 19:55 | 18.15635 | -93.26833 | 33769 ft | 449 kts | 290° |
| 2026-04-25 19:56 | 18.17780 | -93.33003 | 33769 ft | 449 kts | 290° |
| 2026-04-25 19:56 | 18.19918 | -93.39166 | 33770 ft | 449 kts | 290° |
| 2026-04-25 19:57 | 18.22050 | -93.45316 | 33767 ft | 449 kts | 290° |
| 2026-04-25 19:57 | 18.24190 | -93.51496 | 33770 ft | 448 kts | 290° |
| 2026-04-25 19:58 | 18.26321 | -93.57660 | 33771 ft | 448 kts | 290° |
| 2026-04-25 19:58 | 18.28450 | -93.63825 | 33774 ft | 448 kts | 290° |
| 2026-04-25 19:59 | 18.30579 | -93.69996 | 33768 ft | 448 kts | 290° |
| 2026-04-25 19:59 | 18.32703 | -93.76161 | 33769 ft | 449 kts | 290° |
| 2026-04-25 20:00 | 18.34828 | -93.82334 | 33768 ft | 449 kts | 290° |
| 2026-04-25 20:00 | 18.36949 | -93.88507 | 33775 ft | 449 kts | 290° |
| 2026-04-25 20:01 | 18.40134 | -93.97783 | 33783 ft | 449 kts | 291° |
| 2026-04-25 20:01 | 18.42249 | -94.03955 | 33773 ft | 448 kts | 291° |
| 2026-04-25 20:02 | 18.44362 | -94.10129 | 33772 ft | 448 kts | 291° |
| 2026-04-25 20:02 | 18.46469 | -94.16292 | 33772 ft | 447 kts | 291° |
| 2026-04-25 20:03 | 18.48571 | -94.22448 | 33768 ft | 446 kts | 291° |
| 2026-04-25 20:03 | 18.50669 | -94.28601 | 33770 ft | 446 kts | 291° |
| 2026-04-25 20:04 | 18.52763 | -94.34751 | 33772 ft | 446 kts | 291° |
| 2026-04-25 20:04 | 18.54852 | -94.40893 | 33773 ft | 446 kts | 291° |
| 2026-04-25 20:05 | 18.56944 | -94.47049 | 33767 ft | 446 kts | 291° |
| 2026-04-25 20:05 | 18.59018 | -94.53161 | 33768 ft | 446 kts | 291° |
| 2026-04-25 20:06 | 18.61106 | -94.59323 | 33758 ft | 446 kts | 291° |
| 2026-04-25 20:06 | 18.63192 | -94.65485 | 33772 ft | 446 kts | 291° |
| 2026-04-25 20:07 | 18.65276 | -94.71650 | 33768 ft | 447 kts | 291° |
| 2026-04-25 20:07 | 18.67363 | -94.77831 | 33769 ft | 448 kts | 291° |
| 2026-04-25 20:08 | 18.69453 | -94.84025 | 33770 ft | 448 kts | 291° |
| 2026-04-25 20:08 | 18.71539 | -94.90219 | 33785 ft | 448 kts | 291° |
| 2026-04-25 20:09 | 18.73625 | -94.96418 | 33766 ft | 448 kts | 291° |
| 2026-04-25 20:09 | 18.75707 | -95.02616 | 33771 ft | 448 kts | 290° |
| 2026-04-25 20:10 | 18.77784 | -95.08806 | 33770 ft | 447 kts | 290° |
| 2026-04-25 20:10 | 18.79855 | -95.14985 | 33769 ft | 447 kts | 290° |
| 2026-04-25 20:11 | 18.81923 | -95.21159 | 33767 ft | 446 kts | 290° |
| 2026-04-25 20:11 | 18.83989 | -95.27338 | 33768 ft | 446 kts | 290° |
| 2026-04-25 20:12 | 18.86052 | -95.33512 | 33760 ft | 445 kts | 290° |
| 2026-04-25 20:12 | 18.87412 | -95.37589 | 33761 ft | 445 kts | 290° |
| 2026-04-25 20:13 | 18.90161 | -95.45841 | 33759 ft | 445 kts | 290° |
| 2026-04-25 20:13 | 18.92198 | -95.51961 | 33754 ft | 445 kts | 290° |
| 2026-04-25 20:14 | 18.94249 | -95.58135 | 33756 ft | 445 kts | 290° |
| 2026-04-25 20:14 | 18.96297 | -95.64305 | 33751 ft | 445 kts | 290° |
| 2026-04-25 20:15 | 18.98344 | -95.70481 | 33754 ft | 446 kts | 290° |
| 2026-04-25 20:15 | 19.00390 | -95.76661 | 33751 ft | 446 kts | 290° |
| 2026-04-25 20:16 | 19.02435 | -95.82847 | 33748 ft | 446 kts | 290° |
| 2026-04-25 20:16 | 19.04482 | -95.89045 | 33756 ft | 447 kts | 290° |
| 2026-04-25 20:17 | 19.06524 | -95.95240 | 33748 ft | 447 kts | 290° |
| 2026-04-25 20:17 | 19.08564 | -96.01435 | 33753 ft | 446 kts | 290° |
| 2026-04-25 20:18 | 19.10602 | -96.07632 | 33757 ft | 446 kts | 290° |
| 2026-04-25 20:18 | 19.12639 | -96.13821 | 33758 ft | 446 kts | 291° |
| 2026-04-25 20:19 | 19.14027 | -96.16742 | 33745 ft | 444 kts | 306° |
| 2026-04-25 20:19 | 19.16042 | -96.19205 | 33767 ft | 444 kts | 316° |
| 2026-04-25 20:19 | 19.18475 | -96.21213 | 33758 ft | 445 kts | 328° |
| 2026-04-25 20:19 | 19.21193 | -96.22702 | 33775 ft | 446 kts | 332° |
| 2026-04-25 20:20 | 19.26799 | -96.25556 | 33744 ft | 447 kts | 333° |
| 2026-04-25 20:20 | 19.32388 | -96.28443 | 33740 ft | 447 kts | 332° |
| 2026-04-25 20:21 | 19.37964 | -96.31380 | 33747 ft | 447 kts | 332° |
| 2026-04-25 20:21 | 19.43532 | -96.34328 | 33746 ft | 447 kts | 332° |
| 2026-04-25 20:22 | 19.47262 | -96.36303 | 33732 ft | 448 kts | 332° |
| 2026-04-25 20:22 | 19.54672 | -96.40224 | 33743 ft | 447 kts | 332° |
| 2026-04-25 20:23 | 19.60243 | -96.43174 | 33757 ft | 447 kts | 332° |
| 2026-04-25 20:23 | 19.65816 | -96.46128 | 33746 ft | 447 kts | 332° |
| 2026-04-25 20:24 | 19.71377 | -96.49078 | 33767 ft | 447 kts | 331° |
| 2026-04-25 20:24 | 19.75999 | -96.51533 | 33759 ft | 447 kts | 331° |
| 2026-04-25 20:25 | 19.81584 | -96.54501 | 33768 ft | 446 kts | 331° |
| 2026-04-25 20:25 | 19.87094 | -96.57431 | 33775 ft | 445 kts | 331° |
| 2026-04-25 20:26 | 19.92626 | -96.60377 | 33758 ft | 444 kts | 331° |
| 2026-04-25 20:26 | 19.98144 | -96.63326 | 33768 ft | 444 kts | 331° |
| 2026-04-25 20:27 | 20.03671 | -96.66282 | 33771 ft | 445 kts | 330° |
| 2026-04-25 20:27 | 20.09194 | -96.69238 | 33752 ft | 445 kts | 330° |
| 2026-04-25 20:28 | 20.14733 | -96.72204 | 33753 ft | 445 kts | 330° |
| 2026-04-25 20:28 | 20.19974 | -96.75628 | 33758 ft | 441 kts | 319° |
| 2026-04-25 20:29 | 20.24268 | -96.80256 | 33749 ft | 439 kts | 311° |
| 2026-04-25 20:29 | 20.28398 | -96.85063 | 33740 ft | 440 kts | 311° |
| 2026-04-25 20:30 | 20.32541 | -96.89858 | 33743 ft | 440 kts | 311° |
| 2026-04-25 20:30 | 20.36698 | -96.94642 | 33752 ft | 440 kts | 311° |
| 2026-04-25 20:31 | 20.40871 | -96.99435 | 33740 ft | 441 kts | 311° |
| 2026-04-25 20:31 | 20.45040 | -97.04224 | 33740 ft | 441 kts | 311° |
| 2026-04-25 20:32 | 20.49184 | -97.08989 | 33740 ft | 440 kts | 311° |
| 2026-04-25 20:32 | 20.53350 | -97.13785 | 33741 ft | 440 kts | 311° |
| 2026-04-25 20:33 | 20.57505 | -97.18573 | 33738 ft | 440 kts | 311° |
| 2026-04-25 20:33 | 20.60990 | -97.22590 | 33738 ft | 440 kts | 311° |
| 2026-04-25 20:34 | 20.65815 | -97.28159 | 33760 ft | 440 kts | 311° |
| 2026-04-25 20:34 | 20.69971 | -97.32960 | 33744 ft | 439 kts | 311° |
| 2026-04-25 20:35 | 20.74109 | -97.37744 | 33733 ft | 438 kts | 311° |
| 2026-04-25 20:35 | 20.78232 | -97.42515 | 33740 ft | 437 kts | 311° |
| 2026-04-25 20:36 | 20.82356 | -97.47291 | 33726 ft | 437 kts | 311° |
| 2026-04-25 20:36 | 20.86469 | -97.52059 | 33733 ft | 436 kts | 311° |
| 2026-04-25 20:37 | 20.90582 | -97.56831 | 33734 ft | 436 kts | 311° |
| 2026-04-25 20:37 | 20.94688 | -97.61599 | 33718 ft | 435 kts | 311° |
| 2026-04-25 20:38 | 20.98782 | -97.66356 | 33738 ft | 435 kts | 311° |
| 2026-04-25 20:38 | 21.02893 | -97.71139 | 33726 ft | 436 kts | 311° |
| 2026-04-25 20:39 | 21.06993 | -97.75912 | 33716 ft | 436 kts | 311° |
| 2026-04-25 20:39 | 21.10399 | -97.79881 | 33722 ft | 436 kts | 311° |
| 2026-04-25 20:40 | 21.15194 | -97.85473 | 33720 ft | 435 kts | 311° |
| 2026-04-25 20:40 | 21.19260 | -97.90219 | 33698 ft | 436 kts | 311° |
| 2026-04-25 20:41 | 21.23351 | -97.94999 | 33701 ft | 435 kts | 311° |
| 2026-04-25 20:41 | 21.27449 | -97.99791 | 33709 ft | 436 kts | 310° |
| 2026-04-25 20:42 | 21.31550 | -98.04591 | 33697 ft | 436 kts | 311° |
| 2026-04-25 20:42 | 21.35653 | -98.09397 | 33696 ft | 437 kts | 310° |
| 2026-04-25 20:43 | 21.39753 | -98.14205 | 33697 ft | 437 kts | 310° |
| 2026-04-25 20:43 | 21.43861 | -98.19025 | 33699 ft | 437 kts | 310° |
| 2026-04-25 20:44 | 21.47965 | -98.23846 | 33688 ft | 437 kts | 310° |
| 2026-04-25 20:44 | 21.52064 | -98.28665 | 33686 ft | 437 kts | 310° |
| 2026-04-25 20:45 | 21.56168 | -98.33494 | 33688 ft | 437 kts | 310° |
| 2026-04-25 20:45 | 21.60268 | -98.38323 | 33691 ft | 437 kts | 310° |
| 2026-04-25 20:46 | 21.64358 | -98.43144 | 33672 ft | 436 kts | 310° |
| 2026-04-25 20:46 | 21.68442 | -98.47963 | 33679 ft | 435 kts | 310° |
| 2026-04-25 20:47 | 21.72518 | -98.52777 | 33675 ft | 435 kts | 310° |
| 2026-04-25 20:47 | 21.76585 | -98.57585 | 33665 ft | 434 kts | 310° |
| 2026-04-25 20:48 | 21.80621 | -98.62360 | 33677 ft | 434 kts | 310° |
| 2026-04-25 20:48 | 21.84676 | -98.67162 | 33675 ft | 434 kts | 310° |
| 2026-04-25 20:49 | 21.88735 | -98.71973 | 33666 ft | 434 kts | 310° |
| 2026-04-25 20:49 | 21.92784 | -98.76777 | 33671 ft | 433 kts | 310° |
| 2026-04-25 20:50 | 21.96835 | -98.81587 | 33670 ft | 433 kts | 310° |
| 2026-04-25 20:50 | 22.00871 | -98.86384 | 33670 ft | 432 kts | 310° |
| 2026-04-25 20:51 | 22.04909 | -98.91187 | 33667 ft | 432 kts | 310° |
| 2026-04-25 20:51 | 22.08949 | -98.95998 | 33677 ft | 432 kts | 310° |
| 2026-04-25 20:52 | 22.12301 | -98.99994 | 33679 ft | 432 kts | 310° |
| 2026-04-25 20:52 | 22.17015 | -99.05616 | 33684 ft | 432 kts | 310° |
| 2026-04-25 20:53 | 22.21046 | -99.10431 | 33718 ft | 432 kts | 310° |
| 2026-04-25 20:53 | 22.25065 | -99.15233 | 33703 ft | 430 kts | 310° |
| 2026-04-25 20:54 | 22.29067 | -99.20021 | 33702 ft | 428 kts | 310° |
| 2026-04-25 20:54 | 22.33047 | -99.24787 | 33719 ft | 428 kts | 310° |
| 2026-04-25 20:55 | 22.37031 | -99.29561 | 33718 ft | 427 kts | 310° |
| 2026-04-25 20:55 | 22.41009 | -99.34334 | 33725 ft | 427 kts | 310° |
| 2026-04-25 20:56 | 22.44986 | -99.39106 | 33777 ft | 428 kts | 310° |
| 2026-04-25 20:56 | 22.48977 | -99.43901 | 33739 ft | 430 kts | 310° |
| 2026-04-25 20:57 | 22.52972 | -99.48706 | 33774 ft | 429 kts | 310° |
| 2026-04-25 20:57 | 22.56973 | -99.53512 | 33749 ft | 429 kts | 310° |
| 2026-04-25 20:58 | 22.60947 | -99.58306 | 33727 ft | 427 kts | 310° |
| 2026-04-25 20:58 | 22.64907 | -99.63083 | 33726 ft | 425 kts | 310° |
| 2026-04-25 20:59 | 22.68830 | -99.67815 | 33745 ft | 425 kts | 310° |
| 2026-04-25 20:59 | 22.72780 | -99.72588 | 33725 ft | 425 kts | 310° |
| 2026-04-25 21:00 | 22.75420 | -99.75780 | 33730 ft | 425 kts | 310° |
| 2026-04-25 21:01 | 22.82647 | -99.84527 | 33740 ft | 426 kts | 309° |
| 2026-04-25 21:01 | 22.86598 | -99.89317 | 33719 ft | 426 kts | 309° |
| 2026-04-25 21:02 | 22.90546 | -99.94106 | 33700 ft | 426 kts | 309° |
| 2026-04-25 21:02 | 22.94498 | -99.98904 | 33706 ft | 426 kts | 309° |
| 2026-04-25 21:03 | 22.98441 | -100.03696 | 33721 ft | 426 kts | 309° |
| 2026-04-25 21:03 | 23.02384 | -100.08493 | 33711 ft | 426 kts | 309° |
| 2026-04-25 21:04 | 23.06327 | -100.13289 | 33729 ft | 425 kts | 309° |
| 2026-04-25 21:04 | 23.10263 | -100.18087 | 33735 ft | 426 kts | 309° |
| 2026-04-25 21:05 | 23.14194 | -100.22888 | 33715 ft | 426 kts | 309° |
| 2026-04-25 21:05 | 23.18135 | -100.27701 | 33729 ft | 426 kts | 309° |
| 2026-04-25 21:06 | 23.22069 | -100.32511 | 33724 ft | 426 kts | 308° |
| 2026-04-25 21:06 | 23.26009 | -100.37328 | 33731 ft | 427 kts | 309° |
| 2026-04-25 21:07 | 23.29947 | -100.42159 | 33722 ft | 428 kts | 309° |
| 2026-04-25 21:07 | 23.33894 | -100.46999 | 33741 ft | 427 kts | 309° |
| 2026-04-25 21:08 | 23.37832 | -100.51826 | 33747 ft | 426 kts | 309° |
| 2026-04-25 21:08 | 23.41764 | -100.56656 | 33755 ft | 426 kts | 309° |
| 2026-04-25 21:09 | 23.47641 | -100.63885 | 33761 ft | 424 kts | 308° |
| 2026-04-25 21:09 | 23.51542 | -100.68685 | 33776 ft | 423 kts | 309° |
| 2026-04-25 21:10 | 23.55440 | -100.73485 | 33783 ft | 422 kts | 308° |
| 2026-04-25 21:10 | 23.58671 | -100.77470 | 33764 ft | 421 kts | 308° |
| 2026-04-25 21:11 | 23.62488 | -100.82267 | 33735 ft | 415 kts | 308° |
| 2026-04-25 21:11 | 23.66305 | -100.86974 | 33853 ft | 416 kts | 309° |
| 2026-04-25 21:12 | 23.70866 | -100.92462 | 33811 ft | 422 kts | 308° |
| 2026-04-25 21:12 | 23.73462 | -100.95693 | 33803 ft | 425 kts | 308° |
| 2026-04-25 21:13 | 23.78021 | -101.01381 | 33789 ft | 426 kts | 308° |
| 2026-04-25 21:13 | 23.81932 | -101.06242 | 33803 ft | 426 kts | 308° |
| 2026-04-25 21:14 | 23.85840 | -101.11094 | 33804 ft | 425 kts | 308° |
| 2026-04-25 21:14 | 23.89717 | -101.15910 | 33797 ft | 424 kts | 308° |
| 2026-04-25 21:15 | 23.93609 | -101.20752 | 33803 ft | 424 kts | 308° |
| 2026-04-25 21:15 | 23.97493 | -101.25587 | 33822 ft | 423 kts | 308° |
| 2026-04-25 21:16 | 24.01366 | -101.30414 | 33805 ft | 421 kts | 308° |
| 2026-04-25 21:16 | 24.05220 | -101.35221 | 33806 ft | 420 kts | 308° |
| 2026-04-25 21:17 | 24.09070 | -101.40030 | 33807 ft | 419 kts | 308° |
| 2026-04-25 21:17 | 24.12914 | -101.44836 | 33807 ft | 419 kts | 308° |
| 2026-04-25 21:18 | 24.16713 | -101.49659 | 33809 ft | 417 kts | 306° |
| 2026-04-25 21:18 | 24.20243 | -101.54690 | 33816 ft | 416 kts | 304° |
| 2026-04-25 21:19 | 24.23717 | -101.59773 | 33813 ft | 417 kts | 304° |
| 2026-04-25 21:19 | 24.27200 | -101.64855 | 33809 ft | 417 kts | 304° |
| 2026-04-25 21:20 | 24.30108 | -101.69064 | 33800 ft | 418 kts | 304° |
| 2026-04-25 21:20 | 24.34204 | -101.75009 | 33811 ft | 419 kts | 304° |
| 2026-04-25 21:21 | 24.37718 | -101.80113 | 33826 ft | 420 kts | 304° |
| 2026-04-25 21:21 | 24.41219 | -101.85197 | 33820 ft | 420 kts | 304° |
| 2026-04-25 21:22 | 24.44742 | -101.90318 | 33816 ft | 420 kts | 304° |
| 2026-04-25 21:22 | 24.48286 | -101.95476 | 33820 ft | 420 kts | 304° |
| 2026-04-25 21:23 | 24.51778 | -102.00562 | 33805 ft | 420 kts | 304° |
| 2026-04-25 21:23 | 24.55281 | -102.05677 | 33816 ft | 419 kts | 304° |
| 2026-04-25 21:24 | 24.58788 | -102.10793 | 33809 ft | 419 kts | 304° |
| 2026-04-25 21:24 | 24.62287 | -102.15904 | 33804 ft | 418 kts | 303° |
| 2026-04-25 21:25 | 24.65775 | -102.21007 | 33816 ft | 417 kts | 304° |
| 2026-04-25 21:25 | 24.69263 | -102.26114 | 33809 ft | 418 kts | 304° |
| 2026-04-25 21:26 | 24.72756 | -102.31234 | 33816 ft | 418 kts | 304° |
| 2026-04-25 21:26 | 24.76239 | -102.36346 | 33791 ft | 418 kts | 304° |
| 2026-04-25 21:27 | 24.79730 | -102.41475 | 33775 ft | 418 kts | 304° |
| 2026-04-25 21:27 | 24.83216 | -102.46602 | 33811 ft | 420 kts | 303° |
| 2026-04-25 21:28 | 24.86721 | -102.51762 | 33798 ft | 421 kts | 303° |
| 2026-04-25 21:28 | 24.90222 | -102.56926 | 33800 ft | 421 kts | 303° |
| 2026-04-25 21:29 | 24.93735 | -102.62104 | 33795 ft | 422 kts | 303° |
| 2026-04-25 21:29 | 24.97248 | -102.67293 | 33780 ft | 422 kts | 303° |
| 2026-04-25 21:30 | 25.00758 | -102.72484 | 33784 ft | 422 kts | 303° |
| 2026-04-25 21:30 | 25.03668 | -102.76790 | 33787 ft | 422 kts | 303° |
| 2026-04-25 21:31 | 25.07770 | -102.82867 | 33777 ft | 423 kts | 304° |
| 2026-04-25 21:31 | 25.11255 | -102.88038 | 33785 ft | 423 kts | 303° |
| 2026-04-25 21:32 | 25.14762 | -102.93246 | 33765 ft | 422 kts | 303° |
| 2026-04-25 21:32 | 25.18255 | -102.98439 | 33764 ft | 421 kts | 303° |
| 2026-04-25 21:33 | 25.21742 | -103.03629 | 33760 ft | 421 kts | 303° |
| 2026-04-25 21:33 | 25.25228 | -103.08828 | 33750 ft | 420 kts | 303° |
| 2026-04-25 21:34 | 25.28706 | -103.14015 | 33748 ft | 420 kts | 304° |
| 2026-04-25 21:34 | 25.32188 | -103.19212 | 33774 ft | 421 kts | 304° |
| 2026-04-25 21:35 | 25.35677 | -103.24426 | 33860 ft | 422 kts | 303° |
| 2026-04-25 21:35 | 25.39167 | -103.29648 | 33864 ft | 422 kts | 303° |
| 2026-04-25 21:36 | 25.42654 | -103.34872 | 33892 ft | 422 kts | 303° |
| 2026-04-25 21:36 | 25.46136 | -103.40093 | 33922 ft | 421 kts | 303° |
| 2026-04-25 21:37 | 25.49032 | -103.44432 | 33918 ft | 421 kts | 303° |
| 2026-04-25 21:37 | 25.53079 | -103.50519 | 33922 ft | 420 kts | 303° |
| 2026-04-25 21:38 | 25.56547 | -103.55742 | 33903 ft | 421 kts | 303° |
| 2026-04-25 21:38 | 25.60016 | -103.60968 | 33877 ft | 421 kts | 304° |
| 2026-04-25 21:39 | 25.63491 | -103.66201 | 33876 ft | 421 kts | 303° |
| 2026-04-25 21:39 | 25.66965 | -103.71452 | 33797 ft | 424 kts | 303° |
| 2026-04-25 21:40 | 25.70422 | -103.76681 | 33759 ft | 424 kts | 303° |
| 2026-04-25 21:40 | 25.73905 | -103.81965 | 33750 ft | 425 kts | 303° |
| 2026-04-25 21:41 | 25.77400 | -103.87253 | 33781 ft | 424 kts | 302° |
| 2026-04-25 21:41 | 25.80871 | -103.92511 | 33760 ft | 421 kts | 302° |
| 2026-04-25 21:42 | 25.84317 | -103.97742 | 33750 ft | 419 kts | 302° |
| 2026-04-25 21:42 | 25.87746 | -104.02953 | 33757 ft | 417 kts | 302° |
| 2026-04-25 21:43 | 25.91156 | -104.08144 | 33761 ft | 416 kts | 302° |
| 2026-04-25 21:43 | 25.94568 | -104.13349 | 33747 ft | 418 kts | 302° |
| 2026-04-25 21:44 | 25.97998 | -104.18579 | 33743 ft | 418 kts | 302° |
| 2026-04-25 21:45 | 26.03132 | -104.26422 | 33758 ft | 419 kts | 301° |
| 2026-04-25 21:45 | 26.06560 | -104.31663 | 34167 ft | 417 kts | 301° |
| 2026-04-25 21:45 | 26.08263 | -104.34266 | 34473 ft | 414 kts | 301° |
| 2026-04-25 21:46 | 26.09948 | -104.36845 | 34806 ft | 411 kts | 301° |
| 2026-04-25 21:46 | 26.11625 | -104.39412 | 35057 ft | 410 kts | 301° |
| 2026-04-25 21:46 | 26.13297 | -104.41977 | 35268 ft | 409 kts | 301° |
| 2026-04-25 21:46 | 26.14967 | -104.44540 | 35492 ft | 408 kts | 301° |
| 2026-04-25 21:47 | 26.16630 | -104.47094 | 35700 ft | 406 kts | 301° |
| 2026-04-25 21:47 | 26.19958 | -104.52210 | 35750 ft | 409 kts | 301° |
| 2026-04-25 21:48 | 26.23264 | -104.57296 | 35741 ft | 407 kts | 301° |
| 2026-04-25 21:48 | 26.26574 | -104.62392 | 35748 ft | 406 kts | 301° |
| 2026-04-25 21:49 | 26.29884 | -104.67494 | 35745 ft | 406 kts | 301° |
| 2026-04-25 21:49 | 26.33188 | -104.72593 | 35739 ft | 405 kts | 301° |
| 2026-04-25 21:50 | 26.36488 | -104.77692 | 35743 ft | 405 kts | 301° |
| 2026-04-25 21:50 | 26.39781 | -104.82786 | 35769 ft | 405 kts | 301° |
| 2026-04-25 21:51 | 26.43079 | -104.87894 | 35748 ft | 405 kts | 301° |
| 2026-04-25 21:51 | 26.46372 | -104.92997 | 35739 ft | 406 kts | 301° |
| 2026-04-25 21:52 | 26.49676 | -104.98118 | 35738 ft | 406 kts | 301° |
| 2026-04-25 21:52 | 26.52970 | -105.03239 | 35741 ft | 406 kts | 301° |
| 2026-04-25 21:53 | 26.56261 | -105.08362 | 35736 ft | 407 kts | 301° |
| 2026-04-25 21:53 | 26.59560 | -105.13501 | 35737 ft | 407 kts | 301° |
| 2026-04-25 21:54 | 26.62861 | -105.18647 | 35732 ft | 407 kts | 301° |
| 2026-04-25 21:54 | 26.66158 | -105.23792 | 35737 ft | 407 kts | 301° |
| 2026-04-25 21:55 | 26.69430 | -105.28903 | 35755 ft | 407 kts | 300° |
| 2026-04-25 21:55 | 26.72724 | -105.34055 | 35740 ft | 406 kts | 300° |
| 2026-04-25 21:56 | 26.76004 | -105.39193 | 35737 ft | 405 kts | 300° |
| 2026-04-25 21:56 | 26.79270 | -105.44314 | 35735 ft | 404 kts | 300° |
| 2026-04-25 21:57 | 26.82527 | -105.49426 | 35733 ft | 403 kts | 300° |
| 2026-04-25 21:57 | 26.85773 | -105.54527 | 35744 ft | 402 kts | 300° |
| 2026-04-25 21:58 | 26.89021 | -105.59638 | 35740 ft | 402 kts | 300° |
| 2026-04-25 21:58 | 26.92260 | -105.64744 | 35776 ft | 402 kts | 300° |
| 2026-04-25 21:59 | 26.95503 | -105.69857 | 35762 ft | 403 kts | 300° |
| 2026-04-25 21:59 | 26.98752 | -105.74986 | 35745 ft | 403 kts | 300° |
| 2026-04-25 22:00 | 27.03630 | -105.82686 | 35769 ft | 404 kts | 300° |
| 2026-04-25 22:00 | 27.06335 | -105.86970 | 35774 ft | 405 kts | 300° |
| 2026-04-25 22:01 | 27.09592 | -105.92127 | 35771 ft | 405 kts | 300° |
| 2026-04-25 22:01 | 27.12294 | -105.96419 | 35771 ft | 404 kts | 300° |
| 2026-04-25 22:02 | 27.16074 | -106.02427 | 35773 ft | 403 kts | 300° |
| 2026-04-25 22:02 | 27.19310 | -106.07575 | 35780 ft | 403 kts | 300° |
| 2026-04-25 22:03 | 27.22542 | -106.12721 | 35774 ft | 403 kts | 300° |
| 2026-04-25 22:03 | 27.25768 | -106.17863 | 35767 ft | 403 kts | 300° |
| 2026-04-25 22:04 | 27.28990 | -106.23010 | 35777 ft | 403 kts | 300° |
| 2026-04-25 22:04 | 27.32260 | -106.28141 | 35784 ft | 403 kts | 299° |
| 2026-04-25 22:05 | 27.35464 | -106.33308 | 35777 ft | 402 kts | 299° |
| 2026-04-25 22:05 | 27.38665 | -106.38469 | 35798 ft | 402 kts | 299° |
| 2026-04-25 22:06 | 27.41878 | -106.43638 | 35824 ft | 403 kts | 299° |
| 2026-04-25 22:06 | 27.45028 | -106.48839 | 35802 ft | 402 kts | 298° |
| 2026-04-25 22:07 | 27.47726 | -106.53126 | 35782 ft | 402 kts | 298° |
| 2026-04-25 22:07 | 27.51421 | -106.59185 | 35812 ft | 405 kts | 300° |
| 2026-04-25 22:08 | 27.54742 | -106.64344 | 35826 ft | 406 kts | 299° |
| 2026-04-25 22:08 | 27.57972 | -106.69525 | 35831 ft | 408 kts | 299° |
| 2026-04-25 22:09 | 27.61214 | -106.74768 | 35842 ft | 408 kts | 299° |
| 2026-04-25 22:09 | 27.64468 | -106.80028 | 35860 ft | 410 kts | 299° |
| 2026-04-25 22:10 | 27.67731 | -106.85303 | 35850 ft | 410 kts | 299° |
| 2026-04-25 22:10 | 27.70989 | -106.90573 | 35844 ft | 409 kts | 299° |
| 2026-04-25 22:11 | 27.74218 | -106.95852 | 35889 ft | 407 kts | 298° |
| 2026-04-25 22:11 | 27.77447 | -107.01110 | 35866 ft | 408 kts | 299° |
| 2026-04-25 22:12 | 27.80693 | -107.06365 | 35878 ft | 408 kts | 299° |
| 2026-04-25 22:12 | 27.83375 | -107.10729 | 35857 ft | 407 kts | 299° |
| 2026-04-25 22:13 | 27.87143 | -107.16865 | 35904 ft | 407 kts | 299° |
| 2026-04-25 22:13 | 27.90377 | -107.22127 | 35911 ft | 408 kts | 299° |
| 2026-04-25 22:14 | 27.93585 | -107.27369 | 35902 ft | 409 kts | 299° |
| 2026-04-25 22:14 | 27.96814 | -107.32668 | 35913 ft | 410 kts | 299° |
| 2026-04-25 22:15 | 28.00076 | -107.37986 | 35914 ft | 412 kts | 299° |
| 2026-04-25 22:16 | 28.04881 | -107.45981 | 35896 ft | 412 kts | 301° |
| 2026-04-25 22:16 | 28.08214 | -107.51226 | 35911 ft | 410 kts | 297° |
| 2026-04-25 22:17 | 28.11330 | -107.56588 | 35945 ft | 408 kts | 299° |
| 2026-04-25 22:17 | 28.14590 | -107.61865 | 35947 ft | 410 kts | 299° |
| 2026-04-25 22:18 | 28.17819 | -107.67198 | 35949 ft | 411 kts | 299° |
| 2026-04-25 22:18 | 28.21054 | -107.72544 | 35948 ft | 411 kts | 299° |
| 2026-04-25 22:19 | 28.24268 | -107.77902 | 35963 ft | 409 kts | 297° |
| 2026-04-25 22:19 | 28.27482 | -107.83200 | 35967 ft | 413 kts | 301° |
| 2026-04-25 22:20 | 28.30728 | -107.88555 | 35954 ft | 410 kts | 297° |
| 2026-04-25 22:20 | 28.33920 | -107.93922 | 36020 ft | 410 kts | 298° |
| 2026-04-25 22:21 | 28.37157 | -107.99273 | 35961 ft | 412 kts | 298° |
| 2026-04-25 22:21 | 28.40400 | -108.04637 | 35953 ft | 411 kts | 298° |
| 2026-04-25 22:22 | 28.43629 | -108.10005 | 35940 ft | 412 kts | 298° |
| 2026-04-25 22:22 | 28.46859 | -108.15395 | 35928 ft | 412 kts | 298° |
| 2026-04-25 22:23 | 28.50080 | -108.20776 | 35916 ft | 411 kts | 298° |
| 2026-04-25 22:23 | 28.53293 | -108.26152 | 35923 ft | 411 kts | 298° |
| 2026-04-25 22:24 | 28.56506 | -108.31523 | 35930 ft | 410 kts | 298° |
| 2026-04-25 22:24 | 28.59709 | -108.36902 | 35919 ft | 410 kts | 298° |
| 2026-04-25 22:25 | 28.62938 | -108.42263 | 35922 ft | 410 kts | 297° |
| 2026-04-25 22:25 | 28.66093 | -108.47651 | 35901 ft | 408 kts | 296° |
| 2026-04-25 22:26 | 28.69353 | -108.52970 | 35896 ft | 410 kts | 298° |
| 2026-04-25 22:26 | 28.72503 | -108.58314 | 35893 ft | 408 kts | 297° |
| 2026-04-25 22:27 | 28.75633 | -108.63696 | 35897 ft | 407 kts | 297° |
| 2026-04-25 22:27 | 28.78764 | -108.69065 | 35933 ft | 406 kts | 297° |
| 2026-04-25 22:28 | 28.81943 | -108.74457 | 35882 ft | 406 kts | 297° |
| 2026-04-25 22:28 | 28.85040 | -108.79777 | 35858 ft | 403 kts | 295° |
| 2026-04-25 22:29 | 28.88110 | -108.85124 | 35885 ft | 403 kts | 297° |
| 2026-04-25 22:29 | 28.91304 | -108.90388 | 35898 ft | 402 kts | 297° |
| 2026-04-25 22:30 | 28.95914 | -108.98308 | 35901 ft | 394 kts | 296° |
| 2026-04-25 22:30 | 28.98485 | -109.02677 | 35866 ft | 402 kts | 297° |
| 2026-04-25 22:31 | 29.02100 | -109.08937 | 35876 ft | 405 kts | 297° |
| 2026-04-25 22:31 | 29.05255 | -109.14305 | 35845 ft | 407 kts | 297° |
| 2026-04-25 22:32 | 29.08413 | -109.19680 | 35845 ft | 407 kts | 296° |
| 2026-04-25 22:32 | 29.11562 | -109.25056 | 35829 ft | 407 kts | 296° |
| 2026-04-25 22:33 | 29.14684 | -109.30437 | 35830 ft | 406 kts | 296° |
| 2026-04-25 22:33 | 29.17827 | -109.35800 | 35835 ft | 404 kts | 296° |
| 2026-04-25 22:34 | 29.20934 | -109.41174 | 35813 ft | 405 kts | 296° |
| 2026-04-25 22:34 | 29.24029 | -109.46549 | 35804 ft | 404 kts | 296° |
| 2026-04-25 22:35 | 29.27126 | -109.51917 | 35828 ft | 404 kts | 296° |
| 2026-04-25 22:35 | 29.30237 | -109.57291 | 35827 ft | 404 kts | 296° |
| 2026-04-25 22:36 | 29.33314 | -109.62632 | 35823 ft | 404 kts | 296° |
| 2026-04-25 22:36 | 29.36413 | -109.68017 | 35829 ft | 405 kts | 296° |
| 2026-04-25 22:37 | 29.39515 | -109.73408 | 35827 ft | 405 kts | 296° |
| 2026-04-25 22:37 | 29.42603 | -109.78784 | 35823 ft | 403 kts | 296° |
| 2026-04-25 22:38 | 29.45674 | -109.84179 | 35830 ft | 405 kts | 295° |
| 2026-04-25 22:38 | 29.48775 | -109.89581 | 35847 ft | 406 kts | 296° |
| 2026-04-25 22:39 | 29.51888 | -109.94973 | 35843 ft | 405 kts | 296° |
| 2026-04-25 22:39 | 29.54986 | -110.00392 | 35862 ft | 407 kts | 296° |
| 2026-04-25 22:40 | 29.58108 | -110.05817 | 35834 ft | 406 kts | 295° |
| 2026-04-25 22:40 | 29.61156 | -110.11220 | 35836 ft | 405 kts | 295° |
| 2026-04-25 22:41 | 29.64246 | -110.16627 | 35856 ft | 406 kts | 297° |
| 2026-04-25 22:41 | 29.67382 | -110.22075 | 35835 ft | 405 kts | 295° |
| 2026-04-25 22:42 | 29.70407 | -110.27464 | 35829 ft | 403 kts | 295° |
| 2026-04-25 22:42 | 29.73461 | -110.32870 | 35841 ft | 403 kts | 295° |
| 2026-04-25 22:43 | 29.76505 | -110.38278 | 35832 ft | 402 kts | 295° |
| 2026-04-25 22:43 | 29.79561 | -110.43673 | 35847 ft | 402 kts | 295° |
| 2026-04-25 22:44 | 29.82618 | -110.49060 | 35835 ft | 402 kts | 295° |
| 2026-04-25 22:44 | 29.85660 | -110.54452 | 35838 ft | 402 kts | 295° |
| 2026-04-25 22:45 | 29.88695 | -110.59862 | 35842 ft | 402 kts | 294° |
| 2026-04-25 22:45 | 29.91733 | -110.65271 | 35836 ft | 402 kts | 294° |
| 2026-04-25 22:46 | 29.94770 | -110.70678 | 35832 ft | 401 kts | 294° |
| 2026-04-25 22:46 | 29.97798 | -110.76076 | 35829 ft | 401 kts | 294° |
| 2026-04-25 22:47 | 30.00826 | -110.81485 | 35834 ft | 401 kts | 294° |
| 2026-04-25 22:47 | 30.03850 | -110.86892 | 35831 ft | 401 kts | 294° |
| 2026-04-25 22:48 | 30.06880 | -110.92314 | 35823 ft | 402 kts | 294° |
| 2026-04-25 22:48 | 30.09910 | -110.97744 | 35831 ft | 402 kts | 294° |
| 2026-04-25 22:49 | 30.12942 | -111.03174 | 35819 ft | 403 kts | 294° |
| 2026-04-25 22:49 | 30.15986 | -111.08601 | 35822 ft | 402 kts | 294° |
| 2026-04-25 22:50 | 30.19033 | -111.14034 | 35828 ft | 403 kts | 294° |
| 2026-04-25 22:50 | 30.21560 | -111.18551 | 35818 ft | 403 kts | 294° |
| 2026-04-25 22:51 | 30.24600 | -111.23991 | 35817 ft | 402 kts | 294° |
| 2026-04-25 22:51 | 30.28123 | -111.30308 | 35852 ft | 402 kts | 293° |
| 2026-04-25 22:52 | 30.30661 | -111.34864 | 35824 ft | 402 kts | 293° |
| 2026-04-25 22:52 | 30.33681 | -111.40292 | 35816 ft | 401 kts | 293° |
| 2026-04-25 22:53 | 30.36700 | -111.45727 | 35819 ft | 401 kts | 293° |
| 2026-04-25 22:53 | 30.39709 | -111.51150 | 35821 ft | 400 kts | 293° |
| 2026-04-25 22:54 | 30.42720 | -111.56585 | 35823 ft | 400 kts | 293° |
| 2026-04-25 22:54 | 30.45729 | -111.62023 | 35818 ft | 400 kts | 293° |
| 2026-04-25 22:55 | 30.48712 | -111.67423 | 35846 ft | 400 kts | 293° |
| 2026-04-25 22:55 | 30.51708 | -111.72853 | 35827 ft | 399 kts | 293° |
| 2026-04-25 22:56 | 30.54697 | -111.78274 | 35809 ft | 399 kts | 293° |
| 2026-04-25 22:56 | 30.57678 | -111.83691 | 35809 ft | 398 kts | 292° |
| 2026-04-25 22:57 | 30.60656 | -111.89113 | 35808 ft | 398 kts | 292° |
| 2026-04-25 22:57 | 30.63632 | -111.94537 | 35831 ft | 398 kts | 292° |
| 2026-04-25 22:58 | 30.66609 | -111.99968 | 35832 ft | 398 kts | 292° |
| 2026-04-25 22:58 | 30.69586 | -112.05402 | 35839 ft | 399 kts | 292° |
| 2026-04-25 22:59 | 30.72554 | -112.10821 | 35839 ft | 397 kts | 292° |
| 2026-04-25 22:59 | 30.75516 | -112.16259 | 35824 ft | 397 kts | 292° |
| 2026-04-25 23:00 | 30.78451 | -112.21650 | 35843 ft | 397 kts | 292° |
| 2026-04-25 23:00 | 30.81405 | -112.27080 | 35839 ft | 397 kts | 292° |
| 2026-04-25 23:01 | 30.84360 | -112.32517 | 35843 ft | 397 kts | 292° |
| 2026-04-25 23:01 | 30.87312 | -112.37957 | 35845 ft | 397 kts | 292° |
| 2026-04-25 23:02 | 30.90265 | -112.43406 | 35855 ft | 398 kts | 292° |
| 2026-04-25 23:02 | 30.93214 | -112.48855 | 35848 ft | 398 kts | 291° |
| 2026-04-25 23:03 | 30.96171 | -112.54325 | 35854 ft | 398 kts | 291° |
| 2026-04-25 23:03 | 30.99117 | -112.59782 | 35850 ft | 399 kts | 291° |
| 2026-04-25 23:04 | 31.02071 | -112.65263 | 35856 ft | 399 kts | 291° |
| 2026-04-25 23:04 | 31.05019 | -112.70739 | 35854 ft | 399 kts | 291° |
| 2026-04-25 23:05 | 31.07968 | -112.76226 | 35878 ft | 399 kts | 291° |
| 2026-04-25 23:05 | 31.10918 | -112.81724 | 35860 ft | 400 kts | 291° |
| 2026-04-25 23:06 | 31.13868 | -112.87227 | 35856 ft | 400 kts | 291° |
| 2026-04-25 23:06 | 31.16813 | -112.92729 | 35853 ft | 400 kts | 291° |
| 2026-04-25 23:07 | 31.19742 | -112.98212 | 35858 ft | 400 kts | 291° |
| 2026-04-25 23:07 | 31.22684 | -113.03723 | 35859 ft | 400 kts | 291° |
| 2026-04-25 23:08 | 31.25626 | -113.09244 | 35861 ft | 400 kts | 291° |
| 2026-04-25 23:08 | 31.28565 | -113.14767 | 35871 ft | 400 kts | 291° |
| 2026-04-25 23:09 | 31.31501 | -113.20294 | 35863 ft | 401 kts | 290° |
| 2026-04-25 23:09 | 31.34446 | -113.25844 | 35859 ft | 401 kts | 290° |
| 2026-04-25 23:10 | 31.37393 | -113.31382 | 35858 ft | 401 kts | 291° |
| 2026-04-25 23:10 | 31.40457 | -113.36856 | 35859 ft | 403 kts | 292° |
| 2026-04-25 23:11 | 31.43556 | -113.42318 | 35861 ft | 402 kts | 292° |
| 2026-04-25 23:11 | 31.46642 | -113.47787 | 35864 ft | 402 kts | 292° |
| 2026-04-25 23:12 | 31.49717 | -113.53261 | 35861 ft | 402 kts | 292° |
| 2026-04-25 23:12 | 31.52763 | -113.58702 | 35852 ft | 402 kts | 292° |
| 2026-04-25 23:13 | 31.55831 | -113.64192 | 35848 ft | 402 kts | 292° |
| 2026-04-25 23:13 | 31.58891 | -113.69673 | 35847 ft | 402 kts | 292° |
| 2026-04-25 23:14 | 31.61949 | -113.75162 | 35850 ft | 402 kts | 291° |
| 2026-04-25 23:14 | 31.65008 | -113.80658 | 35859 ft | 403 kts | 291° |
| 2026-04-25 23:15 | 31.68072 | -113.86174 | 35844 ft | 403 kts | 291° |
| 2026-04-25 23:15 | 31.71138 | -113.91697 | 35831 ft | 403 kts | 291° |
| 2026-04-25 23:16 | 31.74200 | -113.97221 | 35832 ft | 403 kts | 291° |
| 2026-04-25 23:16 | 31.77256 | -114.02743 | 35817 ft | 403 kts | 291° |
| 2026-04-25 23:17 | 31.80316 | -114.08281 | 35830 ft | 404 kts | 291° |
| 2026-04-25 23:17 | 31.83371 | -114.13819 | 35831 ft | 405 kts | 291° |
| 2026-04-25 23:18 | 31.86438 | -114.19386 | 35815 ft | 405 kts | 291° |
| 2026-04-25 23:18 | 31.89500 | -114.24952 | 35817 ft | 406 kts | 291° |
| 2026-04-25 23:19 | 31.92568 | -114.30536 | 35811 ft | 406 kts | 291° |
| 2026-04-25 23:19 | 31.95630 | -114.36117 | 35808 ft | 406 kts | 291° |
| 2026-04-25 23:20 | 31.98698 | -114.41716 | 35805 ft | 407 kts | 291° |
| 2026-04-25 23:20 | 32.01742 | -114.47283 | 35848 ft | 407 kts | 291° |
| 2026-04-25 23:21 | 32.04811 | -114.52904 | 35819 ft | 408 kts | 291° |
| 2026-04-25 23:21 | 32.07880 | -114.58529 | 35813 ft | 408 kts | 291° |
| 2026-04-25 23:22 | 32.10952 | -114.64170 | 35801 ft | 408 kts | 291° |
| 2026-04-25 23:23 | 32.15539 | -114.72609 | 35806 ft | 407 kts | 291° |
| 2026-04-25 23:23 | 32.18597 | -114.78245 | 35805 ft | 407 kts | 291° |
| 2026-04-25 23:24 | 32.21644 | -114.83872 | 35818 ft | 407 kts | 291° |
| 2026-04-25 23:24 | 32.24680 | -114.89486 | 35807 ft | 408 kts | 291° |
| 2026-04-25 23:25 | 32.27731 | -114.95135 | 35814 ft | 408 kts | 291° |
| 2026-04-25 23:25 | 32.30779 | -115.00786 | 35813 ft | 407 kts | 291° |
| 2026-04-25 23:26 | 32.33822 | -115.06438 | 35814 ft | 408 kts | 291° |
| 2026-04-25 23:26 | 32.36874 | -115.12106 | 35854 ft | 408 kts | 291° |
| 2026-04-25 23:27 | 32.39925 | -115.17776 | 35829 ft | 409 kts | 291° |
| 2026-04-25 23:27 | 32.42978 | -115.23459 | 35820 ft | 409 kts | 291° |
| 2026-04-25 23:28 | 32.46020 | -115.29133 | 35818 ft | 408 kts | 291° |
| 2026-04-25 23:28 | 32.49042 | -115.34777 | 35825 ft | 408 kts | 291° |
| 2026-04-25 23:29 | 32.52076 | -115.40454 | 35818 ft | 408 kts | 291° |
| 2026-04-25 23:29 | 32.55112 | -115.46144 | 35844 ft | 409 kts | 291° |
| 2026-04-25 23:30 | 32.58149 | -115.51844 | 35834 ft | 409 kts | 291° |
| 2026-04-25 23:30 | 32.61183 | -115.57547 | 35820 ft | 409 kts | 291° |
| 2026-04-25 23:31 | 32.64221 | -115.63263 | 35832 ft | 409 kts | 291° |
| 2026-04-25 23:31 | 32.67243 | -115.68978 | 35838 ft | 409 kts | 290° |
| 2026-04-25 23:32 | 32.70250 | -115.74707 | 35842 ft | 409 kts | 290° |
| 2026-04-25 23:32 | 32.73257 | -115.80445 | 35851 ft | 410 kts | 290° |
| 2026-04-25 23:33 | 32.76276 | -115.86211 | 35853 ft | 411 kts | 291° |
| 2026-04-25 23:33 | 32.79291 | -115.91974 | 35860 ft | 411 kts | 290° |
| 2026-04-25 23:34 | 32.82257 | -115.97729 | 35866 ft | 410 kts | 290° |
| 2026-04-25 23:34 | 32.85169 | -116.03555 | 35885 ft | 410 kts | 289° |
| 2026-04-25 23:35 | 32.88083 | -116.09393 | 35886 ft | 410 kts | 290° |
| 2026-04-25 23:35 | 32.91005 | -116.15242 | 35903 ft | 411 kts | 290° |
| 2026-04-25 23:36 | 32.93931 | -116.21097 | 35857 ft | 412 kts | 290° |
| 2026-04-25 23:36 | 32.94922 | -116.23084 | 35653 ft | 414 kts | 290° |
| 2026-04-25 23:36 | 32.96868 | -116.26984 | 35311 ft | 412 kts | 290° |
| 2026-04-25 23:36 | 32.98330 | -116.29916 | 35064 ft | 409 kts | 290° |
| 2026-04-25 23:37 | 32.99770 | -116.32796 | 34823 ft | 402 kts | 289° |
| 2026-04-25 23:37 | 33.01200 | -116.35679 | 34601 ft | 407 kts | 289° |
| 2026-04-25 23:37 | 33.02650 | -116.38609 | 34375 ft | 414 kts | 290° |
| 2026-04-25 23:37 | 33.04126 | -116.41589 | 34173 ft | 420 kts | 290° |
| 2026-04-25 23:38 | 33.05521 | -116.44611 | 33919 ft | 413 kts | 286° |
| 2026-04-25 23:38 | 33.06706 | -116.47706 | 33650 ft | 408 kts | 284° |
| 2026-04-25 23:38 | 33.07822 | -116.50812 | 33402 ft | 407 kts | 283° |
| 2026-04-25 23:38 | 33.08932 | -116.53911 | 33134 ft | 408 kts | 283° |
| 2026-04-25 23:39 | 33.10066 | -116.57023 | 32914 ft | 408 kts | 284° |
| 2026-04-25 23:39 | 33.11223 | -116.60121 | 31959 ft | 413 kts | 284° |
| 2026-04-25 23:39 | 33.12378 | -116.63248 | 31162 ft | 412 kts | 284° |
| 2026-04-25 23:39 | 33.13462 | -116.66398 | 30250 ft | 408 kts | 278° |
| 2026-04-25 23:40 | 33.14067 | -116.69689 | 29097 ft | 406 kts | 272° |
| 2026-04-25 23:40 | 33.14524 | -116.73022 | 27966 ft | 409 kts | 272° |
| 2026-04-25 23:40 | 33.14966 | -116.76378 | 26927 ft | 411 kts | 272° |
| 2026-04-25 23:40 | 33.15414 | -116.79706 | 26340 ft | 406 kts | 273° |
| 2026-04-25 23:41 | 33.15878 | -116.83023 | 26193 ft | 398 kts | 273° |
| 2026-04-25 23:41 | 33.16343 | -116.86280 | 26059 ft | 393 kts | 273° |
| 2026-04-25 23:41 | 33.16798 | -116.89427 | 25999 ft | 375 kts | 272° |
| 2026-04-25 23:41 | 33.17239 | -116.92422 | 25945 ft | 358 kts | 272° |
| 2026-04-25 23:42 | 33.17660 | -116.95279 | 25932 ft | 341 kts | 272° |
| 2026-04-25 23:42 | 33.18061 | -116.98002 | 25931 ft | 325 kts | 272° |
| 2026-04-25 23:42 | 33.18439 | -117.00596 | 25929 ft | 310 kts | 271° |
| 2026-04-25 23:42 | 33.18797 | -117.03075 | 25932 ft | 296 kts | 271° |
| 2026-04-25 23:43 | 33.19139 | -117.05439 | 25941 ft | 281 kts | 270° |
| 2026-04-25 23:43 | 33.19461 | -117.07676 | 25940 ft | 267 kts | 270° |
| 2026-04-25 23:43 | 33.19768 | -117.09813 | 25922 ft | 254 kts | 270° |
| 2026-04-25 23:43 | 33.20055 | -117.11807 | 25948 ft | 242 kts | 269° |
| 2026-04-25 23:44 | 33.20334 | -117.13780 | 25951 ft | 243 kts | 269° |
| 2026-04-25 23:44 | 33.20522 | -117.15146 | 25967 ft | 251 kts | 269° |
| 2026-04-25 23:44 | 33.20813 | -117.17242 | 25929 ft | 260 kts | 270° |
| 2026-04-25 23:44 | 33.21118 | -117.19435 | 25232 ft | 277 kts | 270° |
| 2026-04-25 23:45 | 33.21448 | -117.21794 | 24197 ft | 300 kts | 271° |
| 2026-04-25 23:45 | 33.21810 | -117.24351 | 22917 ft | 325 kts | 272° |
| 2026-04-25 23:45 | 33.22205 | -117.27108 | 21545 ft | 347 kts | 272° |
| 2026-04-25 23:45 | 33.22621 | -117.30014 | 20260 ft | 364 kts | 272° |
| 2026-04-25 23:46 | 33.23062 | -117.33057 | 19007 ft | 378 kts | 273° |
| 2026-04-25 23:46 | 33.23547 | -117.36188 | 17861 ft | 388 kts | 274° |
| 2026-04-25 23:46 | 33.24052 | -117.39360 | 16978 ft | 387 kts | 275° |
| 2026-04-25 23:46 | 33.24547 | -117.42453 | 16361 ft | 381 kts | 275° |
| 2026-04-25 23:47 | 33.25034 | -117.45537 | 15674 ft | 376 kts | 275° |
| 2026-04-25 23:47 | 33.25515 | -117.48630 | 14935 ft | 373 kts | 275° |
| 2026-04-25 23:47 | 33.25984 | -117.51618 | 14270 ft | 369 kts | 276° |
| 2026-04-25 23:47 | 33.26845 | -117.54557 | 13527 ft | 378 kts | 293° |
| 2026-04-25 23:48 | 33.28246 | -117.57189 | 12746 ft | 379 kts | 297° |
| 2026-04-25 23:48 | 33.29682 | -117.59780 | 12462 ft | 368 kts | 297° |
| 2026-04-25 23:48 | 33.31091 | -117.62338 | 12180 ft | 370 kts | 297° |
| 2026-04-25 23:48 | 33.32501 | -117.64928 | 11939 ft | 373 kts | 297° |
| 2026-04-25 23:49 | 33.33915 | -117.67539 | 11679 ft | 374 kts | 297° |
| 2026-04-25 23:49 | 33.35305 | -117.70114 | 11431 ft | 358 kts | 297° |
| 2026-04-25 23:49 | 33.36616 | -117.72536 | 11217 ft | 334 kts | 297° |
| 2026-04-25 23:49 | 33.37832 | -117.74790 | 11004 ft | 314 kts | 297° |
| 2026-04-25 23:50 | 33.38982 | -117.76932 | 10820 ft | 299 kts | 297° |
| 2026-04-25 23:50 | 33.40087 | -117.78997 | 10647 ft | 290 kts | 297° |
| 2026-04-25 23:50 | 33.41160 | -117.81008 | 10485 ft | 283 kts | 297° |
| 2026-04-25 23:50 | 33.42209 | -117.82972 | 10313 ft | 278 kts | 297° |
| 2026-04-25 23:51 | 33.43234 | -117.84892 | 10171 ft | 269 kts | 297° |
| 2026-04-25 23:51 | 33.44233 | -117.86761 | 10003 ft | 264 kts | 298° |
| 2026-04-25 23:51 | 33.45219 | -117.88608 | 9802 ft | 264 kts | 298° |
| 2026-04-25 23:51 | 33.46209 | -117.90462 | 9642 ft | 265 kts | 298° |
| 2026-04-25 23:52 | 33.47226 | -117.92323 | 9474 ft | 270 kts | 304° |
| 2026-04-25 23:52 | 33.48726 | -117.93737 | 9288 ft | 283 kts | 332° |
| 2026-04-25 23:52 | 33.50569 | -117.94587 | 9150 ft | 285 kts | 336° |
| 2026-04-25 23:52 | 33.52430 | -117.95371 | 8956 ft | 284 kts | 336° |
| 2026-04-25 23:53 | 33.54294 | -117.96154 | 8780 ft | 282 kts | 337° |
| 2026-04-25 23:53 | 33.56147 | -117.96944 | 8553 ft | 283 kts | 336° |
| 2026-04-25 23:53 | 33.57992 | -117.97739 | 8386 ft | 281 kts | 336° |
| 2026-04-25 23:53 | 33.59836 | -117.98540 | 8225 ft | 283 kts | 336° |
| 2026-04-25 23:54 | 33.61670 | -117.99338 | 8078 ft | 285 kts | 336° |
| 2026-04-25 23:54 | 33.63585 | -118.00125 | 7872 ft | 290 kts | 339° |
| 2026-04-25 23:54 | 33.65502 | -118.00817 | 7614 ft | 292 kts | 340° |
| 2026-04-25 23:54 | 33.67421 | -118.01503 | 7356 ft | 285 kts | 340° |
| 2026-04-25 23:55 | 33.69303 | -118.02177 | 7119 ft | 280 kts | 340° |
| 2026-04-25 23:55 | 33.71136 | -118.02841 | 7005 ft | 270 kts | 340° |
| 2026-04-25 23:55 | 33.72922 | -118.03493 | 7000 ft | 268 kts | 339° |
| 2026-04-25 23:55 | 33.74722 | -118.04155 | 7014 ft | 275 kts | 340° |
| 2026-04-25 23:56 | 33.76567 | -118.04830 | 6964 ft | 276 kts | 340° |
| 2026-04-25 23:56 | 33.78397 | -118.05503 | 6950 ft | 274 kts | 339° |
| 2026-04-25 23:56 | 33.80189 | -118.06300 | 6611 ft | 274 kts | 334° |
| 2026-04-25 23:56 | 33.81907 | -118.07147 | 6335 ft | 262 kts | 334° |
| 2026-04-25 23:57 | 33.83558 | -118.07958 | 5999 ft | 249 kts | 334° |
| 2026-04-25 23:57 | 33.85127 | -118.08719 | 5693 ft | 237 kts | 336° |
| 2026-04-25 23:57 | 33.86620 | -118.09441 | 5399 ft | 226 kts | 335° |
| 2026-04-25 23:57 | 33.88053 | -118.10131 | 5131 ft | 219 kts | 336° |
| 2026-04-25 23:58 | 33.89471 | -118.10756 | 4919 ft | 216 kts | 347° |
| 2026-04-25 23:58 | 33.90973 | -118.10883 | 4723 ft | 217 kts | 357° |
| 2026-04-25 23:58 | 33.92463 | -118.10952 | 4540 ft | 208 kts | 352° |
| 2026-04-25 23:58 | 33.93734 | -118.11599 | 4284 ft | 196 kts | 315° |
| 2026-04-25 23:59 | 33.94753 | -118.12639 | 4114 ft | 190 kts | 319° |
| 2026-04-25 23:59 | 33.95678 | -118.13732 | 3863 ft | 183 kts | 294° |
| 2026-04-25 23:59 | 33.95915 | -118.15183 | 3730 ft | 178 kts | 271° |
| 2026-04-25 23:59 | 33.95962 | -118.16698 | 3501 ft | 184 kts | 264° |
| 2026-04-26 00:00 | 33.95814 | -118.18235 | 3296 ft | 186 kts | 259° |
| 2026-04-26 00:00 | 33.95638 | -118.19789 | 3097 ft | 189 kts | 261° |
| 2026-04-26 00:00 | 33.95463 | -118.21408 | 2812 ft | 200 kts | 261° |
| 2026-04-26 00:00 | 33.95286 | -118.23091 | 2633 ft | 202 kts | 261° |
| 2026-04-26 00:01 | 33.95105 | -118.24731 | 2570 ft | 195 kts | 260° |
| 2026-04-26 00:01 | 33.94921 | -118.26347 | 2313 ft | 193 kts | 261° |
| 2026-04-26 00:01 | 33.94744 | -118.27908 | 2045 ft | 184 kts | 261° |
| 2026-04-26 00:01 | 33.94589 | -118.29425 | 1744 ft | 178 kts | 262° |
| 2026-04-26 00:02 | 33.94461 | -118.30844 | 1463 ft | 164 kts | 263° |
| 2026-04-26 00:02 | 33.94345 | -118.32146 | 1192 ft | 152 kts | 261° |
| 2026-04-26 00:02 | 33.94235 | -118.33347 | 1053 ft | 141 kts | 262° |
| 2026-04-26 00:02 | 33.94118 | -118.34499 | 821 ft | 139 kts | 261° |
| 2026-04-26 00:03 | 33.93990 | -118.35684 | 583 ft | 144 kts | 263° |
| 2026-04-26 00:03 | 33.93864 | -118.36911 | 368 ft | 151 kts | 263° |
| 2026-04-26 00:03 | 33.93746 | -118.38158 | 199 ft | 147 kts | 263° |
| 2026-04-26 00:03 | 33.93628 | -118.39310 | 92 ft | 127 kts | 263° |
| 2026-04-26 00:04 | 33.93558 | -118.40002 | 95 ft | 31 kts | 267° |
| 2026-04-26 00:04 | 33.93576 | -118.40210 | 94 ft | 19 kts | 289° |
| 2026-04-26 00:04 | 33.93610 | -118.40328 | 96 ft | 12 kts | 289° |
| 2026-04-26 00:04 | 33.93626 | -118.40416 | 95 ft | 10 kts | 277° |
| 2026-04-26 00:05 | 33.93620 | -118.40501 | 94 ft | 10 kts | 263° |
| 2026-04-26 00:05 | 33.93612 | -118.40583 | 95 ft | 10 kts | 260° |
| 2026-04-26 00:05 | 33.93602 | -118.40664 | 93 ft | 10 kts | 261° |
| 2026-04-26 00:05 | 33.93595 | -118.40745 | 94 ft | 11 kts | 264° |
| 2026-04-26 00:06 | 33.93605 | -118.40838 | 94 ft | 11 kts | 291° |
| 2026-04-26 00:06 | 33.93663 | -118.40896 | 95 ft | 11 kts | 349° |
| 2026-04-26 00:06 | 33.93716 | -118.40904 | 95 ft | 4 kts | 352° |
| 2026-04-26 00:06 | 33.93744 | -118.40908 | 94 ft | 4 kts | 353° |
| 2026-04-26 00:07 | 33.93768 | -118.40911 | 93 ft | 2 kts | 353° |
| 2026-04-26 00:07 | 33.93782 | -118.40902 | 93 ft | 2 kts | 60° |
| 2026-04-26 00:07 | 33.93792 | -118.40848 | 93 ft | 9 kts | 82° |
| 2026-04-26 00:07 | 33.93800 | -118.40775 | 96 ft | 9 kts | 83° |
| 2026-04-26 00:08 | 33.93806 | -118.40703 | 93 ft | 8 kts | 84° |
| 2026-04-26 00:08 | 33.93813 | -118.40634 | 94 ft | 8 kts | 83° |
| 2026-04-26 00:08 | 33.93821 | -118.40566 | 93 ft | 8 kts | 83° |
| 2026-04-26 00:08 | 33.93828 | -118.40501 | 95 ft | 8 kts | 84° |
| 2026-04-26 00:09 | 33.93832 | -118.40436 | 94 ft | 8 kts | 86° |
| 2026-04-26 00:09 | 33.93846 | -118.40323 | 95 ft | 18 kts | 82° |
| 2026-04-26 00:09 | 33.93860 | -118.40177 | 95 ft | 17 kts | 83° |
| 2026-04-26 00:09 | 33.93882 | -118.40062 | 96 ft | 10 kts | 49° |
| 2026-04-26 00:10 | 33.93941 | -118.40053 | 94 ft | 9 kts | 352° |
| 2026-04-26 00:10 | 33.93997 | -118.40060 | 93 ft | 7 kts | 355° |
| 2026-04-26 00:10 | 33.94029 | -118.40064 | 92 ft | 4 kts | 352° |
| 2026-04-26 00:10 | 33.94056 | -118.40069 | 92 ft | 4 kts | 350° |
| 2026-04-26 00:11 | 33.94081 | -118.40075 | 94 ft | 3 kts | 349° |
| 2026-04-26 00:11 | 33.94099 | -118.40088 | 92 ft | 2 kts | 303° |
| 2026-04-26 00:11 | 33.94104 | -118.40107 | 94 ft | 2 kts | 275° |
| 2026-04-26 00:11 | 33.94103 | -118.40123 | 92 ft | 2 kts | 266° |
| 2026-04-26 00:12 | 33.94103 | -118.40132 | 95 ft | 1 kts | 266° |
| 2026-04-26 00:12 | 33.94102 | -118.40138 | 94 ft | 1 kts | 266° |
| 2026-04-26 00:12 | 33.94102 | -118.40140 | 94 ft | 0 kts | 265° |